^^
Station Historical Data
 
Daily Summary for October 18, 2018 Units:  English    Metric   Both
« Previous Day
Next Day »
Daily Weekly Monthly Yearly Custom
  Current: High: Low: Average:
Temperature: 43.5 °F TemperatureF °F 32.4 °F 45.6 °F
Dew Point: 35.8 °F DewpointF °F 25.9 °F 29.5 °F
Humidity: 74 % Humidity % 25 % 57 %
Wind Speed: 0 mph WindSpeedMPH mph 0 mph 4.1 mph
Wind Gust: 0 mph WindSpeedGustMPH mph - -
Wind:Calm - - South
Pressure: 30.22 in PressureIn in 30.14 in -
Precipitation: 0 in      
Historical Graphs
 
 
Tabular Data for October 18, 2018
Time Temperature Dew Point Pressure Wind Wind Speed Wind Gust Humidity Rainfall Rate (Hourly)
TemperatureF °F DewpointF °F PressureIn in Calm     Humidity % HourlyPrecipIn in
00:04 35.6 °F 29.1 °F 30.47 in SSE 2.9 mph 7 mph 77 % 0 in
00:09 37.6 °F 29.7 °F 30.47 in SW 2 mph 5 mph 73 % 0 in
00:14 35.4 °F 27.3 °F 30.47 in WSW 4 mph 8 mph 72 % 0 in
00:19 32.7 °F 27.3 °F 30.47 in WSW 2.9 mph 5 mph 80 % 0 in
00:24 32.7 °F 27.9 °F 30.47 in Calm   2 mph 82 % 0 in
00:29 34 °F 28.8 °F 30.46 in Calm   1 mph 81 % 0 in
00:34 35.1 °F 28.6 °F 30.46 in Calm   2 mph 77 % 0 in
00:39 35.4 °F 28.9 °F 30.46 in SSE 0.9 mph 2 mph 77 % 0 in
00:44 35.2 °F 28.8 °F 30.46 in Calm   2 mph 77 % 0 in
00:49 34.5 °F 28.4 °F 30.46 in SE 2 mph 4 mph 78 % 0 in
00:54 34.2 °F 28 °F 30.46 in WSW 4.9 mph 7 mph 78 % 0 in
00:59 33.6 °F 28 °F 30.45 in WSW 4 mph 4 mph 80 % 0 in
01:04 34.2 °F 28.4 °F 30.45 in SSE 0.9 mph 3 mph 79 % 0 in
01:09 34.3 °F 28.2 °F 30.45 in Calm   1 mph 78 % 0 in
01:14 33.6 °F 28 °F 30.45 in SW 2 mph 3 mph 80 % 0 in
01:19 33.8 °F 28 °F 30.45 in Calm   2 mph 79 % 0 in
01:24 33.6 °F 28 °F 30.45 in NE 4 mph 4 mph 80 % 0 in
01:29 33.6 °F 27.9 °F 30.44 in Calm   4 mph 79 % 0 in
01:34 33.1 °F 27.9 °F 30.44 in Calm   2 mph 81 % 0 in
01:39 32.9 °F 27.7 °F 30.44 in Calm     81 % 0 in
01:44 32.4 °F 27.5 °F 30.45 in SW 4 mph 6 mph 82 % 0 in
01:49 32.4 °F 27.9 °F 30.45 in SW 2.9 mph 4 mph 83 % 0 in
01:54 32.9 °F 28 °F 30.45 in SW 4.9 mph 5 mph 82 % 0 in
01:59 33.1 °F 27.9 °F 30.44 in South 0.9 mph 2 mph 81 % 0 in
02:04 33.3 °F 28 °F 30.45 in SE 2.9 mph 5 mph 81 % 0 in
02:09 33.6 °F 27.9 °F 30.45 in SE 8.9 mph 11 mph 79 % 0 in
02:14 33.6 °F 28.4 °F 30.45 in Calm   2 mph 81 % 0 in
02:19 35.1 °F 28.9 °F 30.44 in NNW 2 mph 3 mph 78 % 0 in
02:24 34.5 °F 28 °F 30.44 in South 6 mph 10 mph 77 % 0 in
02:29 34 °F 27.5 °F 30.44 in Calm   4 mph 77 % 0 in
02:34 32.4 °F 27.1 °F 30.44 in SE 11 mph 13 mph 81 % 0 in
02:39 34.5 °F 29.3 °F 30.43 in NNW 4 mph 4 mph 81 % 0 in
02:44 33.4 °F 27.7 °F 30.43 in ENE 2.9 mph 4 mph 79 % 0 in
02:49 33.3 °F 28 °F 30.44 in SW 4 mph 6 mph 81 % 0 in
02:54 33.4 °F 27.7 °F 30.42 in ENE 2 mph 7 mph 79 % 0 in
02:59 34 °F 28.4 °F 30.43 in SE 2.9 mph 9 mph 80 % 0 in
03:04 34 °F 27.9 °F 30.43 in Calm   4 mph 78 % 0 in
03:09 34 °F 28.2 °F 30.43 in SW 4.9 mph 8 mph 79 % 0 in
03:14 34.3 °F 28.2 °F 30.43 in SSE 4.9 mph 14 mph 78 % 0 in
03:19 36.1 °F 28.6 °F 30.43 in SW 6.9 mph 9 mph 74 % 0 in
03:24 35.4 °F 28.2 °F 30.43 in SW 6.9 mph 8 mph 75 % 0 in
03:29 34.5 °F 28 °F 30.42 in NW 2 mph 5 mph 77 % 0 in
03:34 34.7 °F 28.2 °F 30.42 in SW 2.9 mph 6 mph 77 % 0 in
03:39 35.4 °F 28 °F 30.42 in SSE 11 mph 18 mph 74 % 0 in
03:44 35.2 °F 28.8 °F 30.42 in SSE 0.9 mph 3 mph 77 % 0 in
03:49 35.1 °F 28.2 °F 30.42 in South 4 mph 6 mph 76 % 0 in
03:54 33.6 °F 27.5 °F 30.42 in SW 6 mph 6 mph 78 % 0 in
03:59 33.4 °F 27.9 °F 30.42 in SSE 0.9 mph 3 mph 80 % 0 in
04:04 33.6 °F 27.9 °F 30.42 in WSW 0.9 mph 2 mph 79 % 0 in
04:09 33.3 °F 27.7 °F 30.42 in South 6.9 mph 8 mph 80 % 0 in
04:14 34.3 °F 28.2 °F 30.42 in Calm   4 mph 78 % 0 in
04:19 34.2 °F 28 °F 30.41 in SSE 4.9 mph 7 mph 78 % 0 in
04:24 33.4 °F 27.7 °F 30.41 in South 2 mph 7 mph 79 % 0 in
04:29 33.1 °F 27.5 °F 30.41 in SW 6 mph 7 mph 80 % 0 in
04:34 33.1 °F 27.5 °F 30.42 in SSE 8.1 mph 11 mph 80 % 0 in
04:39 34.3 °F 27.9 °F 30.41 in SSW 2 mph 5 mph 77 % 0 in
04:44 33.6 °F 27.5 °F 30.42 in SSE 2 mph 4 mph 78 % 0 in
04:49 33.3 °F 27.5 °F 30.41 in SSW 4.9 mph 10 mph 79 % 0 in
04:54 33.8 °F 27.7 °F 30.41 in WSW 2 mph 5 mph 78 % 0 in
04:59 33.1 °F 27.3 °F 30.42 in SW 4.9 mph 8 mph 79 % 0 in
05:04 32.9 °F 27.5 °F 30.41 in SW 2 mph 5 mph 80 % 0 in
05:09 33.6 °F 27.5 °F 30.41 in South 4 mph 6 mph 78 % 0 in
05:14 34 °F 27.5 °F 30.41 in Calm     77 % 0 in
05:19 34.3 °F 27.9 °F 30.41 in SE 2 mph 8 mph 77 % 0 in
05:24 34.2 °F 27.3 °F 30.41 in SW 6.9 mph 9 mph 76 % 0 in
05:29 32.7 °F 27.3 °F 30.41 in WSW 4.9 mph 8 mph 80 % 0 in
05:34 32.7 °F 27 °F 30.41 in WSW 10.1 mph 10 mph 79 % 0 in
05:39 34 °F 27.5 °F 30.41 in SSW 2 mph 5 mph 77 % 0 in
05:44 34.7 °F 27.7 °F 30.41 in WSW 2 mph 3 mph 75 % 0 in
05:49 34 °F 27.1 °F 30.41 in SSE 2.9 mph 6 mph 76 % 0 in
05:54 34.2 °F 27.3 °F 30.41 in SW 2.9 mph 7 mph 76 % 0 in
05:59 34.7 °F 27.3 °F 30.41 in SE 2.9 mph 5 mph 74 % 0 in
06:04 34.5 °F 27.5 °F 30.41 in South 2 mph 6 mph 75 % 0 in
06:09 34.7 °F 27.3 °F 30.41 in Calm   3 mph 74 % 0 in
06:14 34.9 °F 27.5 °F 30.41 in SSE 2.9 mph 3 mph 74 % 0 in
06:19 35.2 °F 27.5 °F 30.41 in Calm   2 mph 73 % 0 in
06:24 35.2 °F 27.5 °F 30.41 in Calm   5 mph 73 % 0 in
06:29 35.2 °F 27.5 °F 30.41 in Calm   3 mph 73 % 0 in
06:34 35.4 °F 27.3 °F 30.41 in Calm   1 mph 72 % 0 in
06:39 35.4 °F 27.3 °F 30.41 in SE 2.9 mph 3 mph 72 % 0 in
06:44 34.5 °F 27.1 °F 30.41 in Calm     74 % 0 in
06:49 34.9 °F 27.5 °F 30.41 in Calm   2 mph 74 % 0 in
06:54 35.4 °F 27.3 °F 30.41 in Calm   5 mph 72 % 0 in
06:59 36.1 °F 27.7 °F 30.41 in SW 2.9 mph 4 mph 71 % 0 in
07:04 35.4 °F 27 °F 30.41 in WNW 2.9 mph 3 mph 71 % 0 in
07:09 35.1 °F 27.7 °F 30.41 in WSW 0.9 mph 4 mph 74 % 0 in
07:14 35.6 °F 27.9 °F 30.40 in SW 4 mph 5 mph 73 % 0 in
07:19 36.1 °F 28 °F 30.40 in SW 2.9 mph 3 mph 72 % 0 in
07:24 35.8 °F 27.7 °F 30.40 in SSW 0.9 mph 3 mph 72 % 0 in
07:29 35.1 °F 27.3 °F 30.40 in SSW 4.9 mph 6 mph 73 % 0 in
07:34 33.6 °F 26.6 °F 30.40 in WSW 6 mph 10 mph 75 % 0 in
07:39 33.3 °F 26.8 °F 30.40 in WSW 4 mph 8 mph 77 % 0 in
07:44 33.6 °F 27.1 °F 30.40 in South 4 mph 7 mph 77 % 0 in
07:49 35.2 °F 28 °F 30.40 in SW 6.9 mph 9 mph 75 % 0 in
07:54 36.5 °F 28.4 °F 30.40 in SW 8.1 mph 8 mph 72 % 0 in
07:59 37.6 °F 28.4 °F 30.40 in SSW 8.1 mph 9 mph 69 % 0 in
08:04 37.9 °F 29.1 °F 30.40 in SSW 4 mph 6 mph 70 % 0 in
08:09 36.9 °F 28 °F 30.40 in South 4.9 mph 11 mph 70 % 0 in
08:14 36.9 °F 28.4 °F 30.40 in WSW 4 mph 7 mph 71 % 0 in
08:19 36.7 °F 28.2 °F 30.40 in SW 4 mph 5 mph 71 % 0 in
08:24 36.9 °F 28.4 °F 30.39 in WSW 4.9 mph 6 mph 71 % 0 in
08:29 37.6 °F 29.1 °F 30.40 in WSW 4 mph 5 mph 71 % 0 in
08:34 38.5 °F 29.5 °F 30.39 in WSW 2 mph 5 mph 70 % 0 in
08:39 40.3 °F 30.6 °F 30.39 in Calm   2 mph 68 % 0 in
08:44 41.4 °F 30.6 °F 30.39 in SW 2 mph 4 mph 65 % 0 in
08:49 41.4 °F 30 °F 30.39 in WSW 2.9 mph 5 mph 64 % 0 in
08:54 41 °F 30.2 °F 30.39 in SSW 2 mph 5 mph 65 % 0 in
08:59 41.4 °F 30.6 °F 30.39 in WNW 2 mph 4 mph 65 % 0 in
09:04 42.4 °F 31.1 °F 30.39 in West 2.9 mph 4 mph 64 % 0 in
09:09 43.2 °F 31.5 °F 30.38 in WSW 2.9 mph 4 mph 63 % 0 in
09:14 43.9 °F 31.6 °F 30.38 in West 2.9 mph 4 mph 62 % 0 in
09:19 44.4 °F 31.8 °F 30.38 in West 2.9 mph 3 mph 61 % 0 in
09:24 45.5 °F 32.4 °F 30.38 in SW 2.9 mph 3 mph 60 % 0 in
09:29 46.9 °F 32.5 °F 30.38 in South 4 mph 7 mph 57 % 0 in
09:34 48.4 °F 32.9 °F 30.38 in Calm   6 mph 55 % 0 in
09:39 49.5 °F 33.1 °F 30.37 in SW 4 mph 5 mph 53 % 0 in
09:44 50.2 °F 33.3 °F 30.37 in SSW 2 mph 4 mph 52 % 0 in
09:49 50.7 °F 32.7 °F 30.37 in SW 2.9 mph 4 mph 50 % 0 in
09:54 51.4 °F 32.9 °F 30.36 in SW 0.9 mph 4 mph 49 % 0 in
09:59 52.5 °F 32.9 °F 30.36 in Calm     47 % 0 in
10:04 53.2 °F 33.4 °F 30.36 in Calm   4 mph 47 % 0 in
10:09 53.8 °F 32.9 °F 30.36 in North 2.9 mph 4 mph 45 % 0 in
10:14 53.8 °F 31.8 °F 30.35 in WNW 2.9 mph 4 mph 43 % 0 in
10:19 54.7 °F 30.2 °F 30.35 in SW 2 mph 3 mph 39 % 0 in
10:24 55.8 °F 30.6 °F 30.34 in Calm   1 mph 38 % 0 in
10:29 55.8 °F 29.1 °F 30.34 in ENE 4 mph 5 mph 36 % 0 in
10:34 55.8 °F 29.8 °F 30.34 in SSE 2 mph 2 mph 37 % 0 in
10:39 55.9 °F 29.3 °F 30.34 in ENE 4 mph 7 mph 36 % 0 in
10:44 55.9 °F 29.3 °F 30.33 in SSE 6.9 mph 10 mph 36 % 0 in
10:49 56.1 °F 28 °F 30.33 in SSE 0.9 mph 8 mph 34 % 0 in
10:54 56.1 °F 28 °F 30.33 in ENE 6 mph 13 mph 34 % 0 in
10:59 55.6 °F 29.1 °F 30.33 in South 2.9 mph 4 mph 36 % 0 in
11:04 56.5 °F 28.4 °F 30.32 in SSE 4.9 mph 14 mph 34 % 0 in
11:09 57.4 °F 29.3 °F 30.32 in East 4 mph 4 mph 34 % 0 in
11:14 57.6 °F 29.5 °F 30.32 in SSE 4 mph 12 mph 34 % 0 in
11:19 57.6 °F 28.6 °F 30.32 in SE 0.9 mph 12 mph 33 % 0 in
11:24 57.6 °F 27.9 °F 30.31 in WSW 2.9 mph 9 mph 32 % 0 in
11:29 57 °F 28.9 °F 30.31 in ENE 6.9 mph 12 mph 34 % 0 in
11:34 57.6 °F 29.5 °F 30.30 in SW 8.1 mph 9 mph 34 % 0 in
11:39 58.1 °F 29.1 °F 30.30 in ENE 6 mph 8 mph 33 % 0 in
11:44 57.6 °F 28.6 °F 30.29 in SSE 4.9 mph 13 mph 33 % 0 in
11:49 57.9 °F 28.9 °F 30.29 in East 2.9 mph 6 mph 33 % 0 in
11:54 58.6 °F 29.7 °F 30.29 in NW 0.9 mph 9 mph 33 % 0 in
11:59 58.8 °F 28.2 °F 30.29 in SSE 2 mph 14 mph 31 % 0 in
12:04 58.5 °F 27.9 °F 30.29 in SE 2.9 mph 10 mph 31 % 0 in
12:09 57.7 °F 28 °F 30.28 in South 4 mph 14 mph 32 % 0 in
12:14 57.9 °F 28.2 °F 30.28 in SSW 6.9 mph 8 mph 32 % 0 in
12:19 58.5 °F 27.1 °F 30.27 in SE 8.9 mph 13 mph 30 % 0 in
12:24 58.3 °F 28.6 °F 30.27 in SE 8.1 mph 8 mph 32 % 0 in
12:29 58.6 °F 28.9 °F 30.27 in West 6.9 mph 8 mph 32 % 0 in
12:34 58.5 °F 27.1 °F 30.26 in SSW 10.1 mph 12 mph 30 % 0 in
12:39 58.3 °F 27 °F 30.26 in ESE 11 mph 11 mph 30 % 0 in
12:44 58.5 °F 27.9 °F 30.26 in SSE 6 mph 11 mph 31 % 0 in
12:49 58.3 °F 27 °F 30.25 in SSE 8.1 mph 8 mph 30 % 0 in
12:54 58.1 °F 26.8 °F 30.24 in South 0.9 mph 4 mph 30 % 0 in
12:59 58.5 °F 26.2 °F 30.24 in WSW 6.9 mph 12 mph 29 % 0 in
13:04 58.5 °F 27.9 °F 30.24 in South 10.1 mph 14 mph 31 % 0 in
13:09 58.6 °F 26.4 °F 30.23 in ENE 2.9 mph 4 mph 29 % 0 in
13:14 58.6 °F 27.3 °F 30.23 in SW 4 mph 6 mph 30 % 0 in
13:19 59.4 °F 27.1 °F 30.23 in SW 6.9 mph 9 mph 29 % 0 in
13:24 58.8 °F 27.5 °F 30.22 in WSW 6 mph 8 mph 30 % 0 in
13:29 59.2 °F 27 °F 30.22 in SW 8.9 mph 10 mph 29 % 0 in
13:34 60.1 °F 27.7 °F 30.21 in SSE 8.1 mph 12 mph 29 % 0 in
13:39 60.1 °F 27.7 °F 30.21 in SSW 4 mph 13 mph 29 % 0 in
13:44 60.6 °F 28.2 °F 30.21 in SSW 4 mph 6 mph 29 % 0 in
13:49 60.8 °F 27.5 °F 30.20 in ESE 6 mph 13 mph 28 % 0 in
13:54 60.4 °F 28 °F 30.20 in SSE 6.9 mph 12 mph 29 % 0 in
13:59 60.4 °F 27.1 °F 30.19 in ESE 4 mph 16 mph 28 % 0 in
14:04 60.3 °F 27 °F 30.19 in ENE 4.9 mph 7 mph 28 % 0 in
14:09 60.6 °F 27.3 °F 30.19 in SSE 2 mph 10 mph 28 % 0 in
14:14 61.3 °F 27.9 °F 30.18 in NNW 4 mph 4 mph 28 % 0 in
14:19 61.5 °F 26.2 °F 30.18 in SE 4 mph 12 mph 26 % 0 in
14:24 61.7 °F 27.3 °F 30.17 in SE 6.9 mph 13 mph 27 % 0 in
14:29 62.1 °F 26.8 °F 30.17 in SW 6 mph 11 mph 26 % 0 in
14:34 61.9 °F 26.6 °F 30.17 in East 4.9 mph 7 mph 26 % 0 in
14:39 62.1 °F 25.9 °F 30.17 in West 4 mph 12 mph 25 % 0 in
14:44 61.3 °F 26.2 °F 30.16 in NNE 4.9 mph 8 mph 26 % 0 in
14:49 60.8 °F 26.6 °F 30.16 in East 10.1 mph 10 mph 27 % 0 in
14:54 60.1 °F 26.1 °F 30.16 in ENE 8.9 mph 10 mph 27 % 0 in
14:59 59.7 °F 27.3 °F 30.16 in NW 2 mph 10 mph 29 % 0 in
15:04 58.5 °F 27.1 °F 30.16 in North 2.9 mph 10 mph 30 % 0 in
15:09 57.7 °F 26.4 °F 30.16 in North 6.9 mph 7 mph 30 % 0 in
15:14 57 °F 26.6 °F 30.16 in NNW 8.1 mph 12 mph 31 % 0 in
15:19 56.8 °F 27.3 °F 30.16 in NE 2 mph 5 mph 32 % 0 in
15:24 57 °F 27.5 °F 30.16 in ENE 4.9 mph 11 mph 32 % 0 in
15:29 57 °F 27.5 °F 30.16 in North 8.9 mph 9 mph 32 % 0 in
15:34 57.4 °F 28.6 °F 30.16 in ENE 4 mph 9 mph 33 % 0 in
15:39 57.4 °F 27.7 °F 30.16 in NE 10.1 mph 16 mph 32 % 0 in
15:44 56.5 °F 27 °F 30.16 in NE 11 mph 17 mph 32 % 0 in
15:49 56.1 °F 27.3 °F 30.15 in North 4 mph 10 mph 33 % 0 in
15:54 56.1 °F 28 °F 30.15 in NE 12.1 mph 14 mph 34 % 0 in
15:59 55.8 °F 27.9 °F 30.15 in East 8.1 mph 16 mph 34 % 0 in
16:04 55.8 °F 28.6 °F 30.15 in NNE 10.1 mph 12 mph 35 % 0 in
16:09 55.6 °F 28.4 °F 30.15 in NE 2.9 mph 13 mph 35 % 0 in
16:14 55.6 °F 28.4 °F 30.15 in ENE 8.1 mph 12 mph 35 % 0 in
16:19 55.8 °F 29.1 °F 30.15 in ENE 8.9 mph 11 mph 36 % 0 in
16:24 55.6 °F 28.4 °F 30.15 in ENE 12.1 mph 14 mph 35 % 0 in
16:29 55.2 °F 28 °F 30.15 in NE 8.1 mph 13 mph 35 % 0 in
16:34 55 °F 27.9 °F 30.15 in ENE 8.9 mph 14 mph 35 % 0 in
16:39 54.9 °F 27.7 °F 30.15 in ENE 6.9 mph 11 mph 35 % 0 in
16:44 54.7 °F 28.2 °F 30.15 in NNE 4.9 mph 8 mph 36 % 0 in
16:49 54.7 °F 28.2 °F 30.15 in ENE 4.9 mph 7 mph 36 % 0 in
16:54 54.3 °F 27.9 °F 30.15 in NE 8.9 mph 11 mph 36 % 0 in
16:59 54.1 °F 28.4 °F 30.15 in NE 2.9 mph 11 mph 37 % 0 in
17:04 54 °F 30.2 °F 30.15 in NNE 6 mph 10 mph 40 % 0 in
17:09 53.8 °F 30.6 °F 30.15 in ENE 4 mph 9 mph 41 % 0 in
17:14 53.4 °F 32.5 °F 30.15 in NE 8.1 mph 11 mph 45 % 0 in
17:19 53.1 °F 33.8 °F 30.15 in ENE 4.9 mph 11 mph 48 % 0 in
17:24 52.9 °F 34.2 °F 30.15 in ENE 6 mph 8 mph 49 % 0 in
17:29 52.3 °F 34.2 °F 30.14 in ENE 4 mph 4 mph 50 % 0 in
17:34 52.2 °F 34.5 °F 30.14 in ENE 4.9 mph 6 mph 51 % 0 in
17:39 52 °F 34.9 °F 30.14 in East 2.9 mph 4 mph 52 % 0 in
17:44 51.8 °F 35.2 °F 30.14 in Calm   1 mph 53 % 0 in
17:49 51.6 °F 34.5 °F 30.14 in East 2.9 mph 3 mph 52 % 0 in
17:54 51.3 °F 35.2 °F 30.14 in North 0.9 mph 3 mph 54 % 0 in
17:59 51.1 °F 35.4 °F 30.14 in NNE 2 mph 3 mph 55 % 0 in
18:04 51.1 °F 35.1 °F 30.14 in Calm   1 mph 54 % 0 in
18:09 51.1 °F 33.6 °F 30.14 in NNE 0.9 mph 4 mph 51 % 0 in
18:14 51.1 °F 34 °F 30.14 in Calm     52 % 0 in
18:19 50.7 °F 33.8 °F 30.14 in ENE 4 mph 5 mph 52 % 0 in
18:24 50.5 °F 33.6 °F 30.14 in ENE 6.9 mph 7 mph 52 % 0 in
18:29 50 °F 34 °F 30.14 in ENE 8.1 mph 8 mph 54 % 0 in
18:34 49.8 °F 33.4 °F 30.15 in ENE 4 mph 4 mph 53 % 0 in
18:39 50 °F 32.2 °F 30.15 in ENE 2 mph 4 mph 50 % 0 in
18:44 50.4 °F 32.4 °F 30.15 in ENE 0.9 mph 2 mph 50 % 0 in
18:49 49.8 °F 30.9 °F 30.15 in NNW 4 mph 5 mph 48 % 0 in
18:54 50.2 °F 31.3 °F 30.16 in NNE 2 mph 4 mph 48 % 0 in
18:59 50 °F 32.2 °F 30.16 in NNE 2 mph 3 mph 50 % 0 in
19:04 50 °F 31.1 °F 30.16 in Calm   2 mph 48 % 0 in
19:09 50.2 °F 30.7 °F 30.16 in NNE 0.9 mph 2 mph 47 % 0 in
19:14 50 °F 30.6 °F 30.16 in Calm   1 mph 47 % 0 in
19:19 49.6 °F 30.7 °F 30.17 in Calm   1 mph 48 % 0 in
19:24 49.6 °F 31.3 °F 30.16 in Calm   1 mph 49 % 0 in
19:29 49.6 °F 30.2 °F 30.16 in Calm   1 mph 47 % 0 in
19:34 49.6 °F 30.7 °F 30.16 in Calm     48 % 0 in
19:39 49.1 °F 32.7 °F 30.17 in SE 4 mph 6 mph 53 % 0 in
19:44 48.4 °F 32.5 °F 30.17 in South 6 mph 6 mph 54 % 0 in
19:49 47.8 °F 32.9 °F 30.17 in South 0.9 mph 5 mph 56 % 0 in
19:54 47.5 °F 32.5 °F 30.17 in South 6.9 mph 9 mph 56 % 0 in
19:59 46.9 °F 32.5 °F 30.17 in SSE 6.9 mph 8 mph 57 % 0 in
20:04 46.6 °F 32.5 °F 30.17 in SSE 6.9 mph 8 mph 58 % 0 in
20:09 45.7 °F 32.5 °F 30.17 in SSW 8.1 mph 13 mph 60 % 0 in
20:14 45.3 °F 32.2 °F 30.18 in South 6.9 mph 10 mph 60 % 0 in
20:19 45 °F 32.4 °F 30.18 in SW 6.9 mph 9 mph 61 % 0 in
20:24 44.8 °F 32.2 °F 30.18 in ESE 4 mph 7 mph 61 % 0 in
20:29 44.8 °F 31.8 °F 30.19 in SSE 6.9 mph 8 mph 60 % 0 in
20:34 45 °F 32 °F 30.19 in WSW 6.9 mph 7 mph 60 % 0 in
20:39 45.5 °F 32 °F 30.20 in WSW 2 mph 4 mph 59 % 0 in
20:44 45.9 °F 31.5 °F 30.20 in WSW 4.9 mph 10 mph 57 % 0 in
20:49 46.8 °F 31.5 °F 30.20 in West 4 mph 11 mph 55 % 0 in
20:54 46.9 °F 32.5 °F 30.20 in SW 12.1 mph 19 mph 57 % 0 in
20:59 46.9 °F 33.4 °F 30.19 in NW 17 mph 24 mph 59 % 0 in
21:04 46.2 °F 34.3 °F 30.19 in West 12.1 mph 19 mph 63 % 0 in
21:09 45.7 °F 35.1 °F 30.20 in WNW 13 mph 28 mph 66 % 0 in
21:14 45.1 °F 35.2 °F 30.20 in ENE 10.1 mph 21 mph 68 % 0 in
21:19 44.8 °F 35.6 °F 30.20 in WNW 8.9 mph 20 mph 70 % 0 in
21:24 44.4 °F 35.6 °F 30.20 in West 15 mph 18 mph 71 % 0 in
21:29 44.4 °F 35.2 °F 30.21 in WSW 10.1 mph 16 mph 70 % 0 in
21:34 44.4 °F 35.2 °F 30.21 in NNW 4.9 mph 11 mph 70 % 0 in
21:39 44.4 °F 35.2 °F 30.21 in WSW 4 mph 6 mph 70 % 0 in
21:44 44.6 °F 35.1 °F 30.22 in WSW 4 mph 6 mph 69 % 0 in
21:49 44.8 °F 34.9 °F 30.21 in SW 8.9 mph 13 mph 68 % 0 in
21:54 45.3 °F 34.7 °F 30.22 in West 6 mph 7 mph 66 % 0 in
21:59 45.7 °F 34.5 °F 30.22 in WSW 4.9 mph 6 mph 65 % 0 in
22:04 45.9 °F 34.7 °F 30.22 in WNW 4 mph 7 mph 65 % 0 in
22:09 46 °F 34.9 °F 30.22 in West 2 mph 4 mph 65 % 0 in
22:14 45.9 °F 35.1 °F 30.22 in West 2.9 mph 4 mph 66 % 0 in
22:19 45.7 °F 34.5 °F 30.22 in WSW 0.9 mph 3 mph 65 % 0 in
22:24 45.7 °F 35.1 °F 30.22 in NNE 4 mph 4 mph 66 % 0 in
22:29 45.1 °F 35.2 °F 30.22 in Calm   2 mph 68 % 0 in
22:34 44.8 °F 34.9 °F 30.22 in North 2 mph 2 mph 68 % 0 in
22:39 44.6 °F 35.4 °F 30.22 in NE 2 mph 3 mph 70 % 0 in
22:44 44.1 °F 36.3 °F 30.22 in ENE 2 mph 4 mph 74 % 0 in
22:49 43.5 °F 36.1 °F 30.22 in Calm   2 mph 75 % 0 in
22:54 43.5 °F 35.8 °F 30.22 in Calm     74 % 0 in
Evergreen Colorado, USA
Compliments of Weather Underground - 3.5 mb